Time;durP1;ratioP1;P1;durP2;ratioP2;P2;SDS_P1;SDS_P2;PMS_P1;PMS_P2;Temp;Humidity;BMP_temperature;BMP_pressure;BME280_temperature;BME280_humidity;BME280_pressure;Samples;Min_cycle;Max_cycle;Signal;HPM_P1;HPM_P2
2024/01/04 00:00:00;;;;;;;;;;;;;;;-0.05;85.35;93461.28;5015683;28;19971;-64
2024/01/04 00:02:30;;;;;;;;;;;;;;;0.37;83.57;93461.22;5017021;28;20407;-65
2024/01/04 00:04:55;;;;;;;;;;;;;;;0.16;83.87;93457.31;5017025;28;20210;-67
2024/01/04 00:07:20;;;;;;;;;;;;;;;0.44;83.20;93455.13;5017174;28;20155;-66
2024/01/04 00:09:46;;;;;;;;;;;;;;;-0.24;87.75;93468.47;5016886;28;20027;-66
2024/01/04 00:12:12;;;;;;;;;;;;;;;0.07;85.67;93490.53;5012549;28;19953;-66
2024/01/04 00:14:37;;;;;;;;;;;;;;;0.03;86.10;93463.88;5016318;28;19929;-65
2024/01/04 00:17:02;;;;;;;;;;;;;;;0.33;84.06;93448.47;5014613;28;20239;-65
2024/01/04 00:19:28;;;;;;;;;;;;;;;0.12;83.70;93471.72;5017393;28;19955;-65
2024/01/04 00:21:53;;;;;;;;;;;;;;;-0.31;87.30;93485.81;5016375;28;19932;-65
2024/01/04 00:24:18;;;;;;;;;;;;;;;-0.42;86.66;93492.19;5014973;28;19929;-66
2024/01/04 00:26:43;;;;;;;;;;;;;;;-0.90;89.10;93499.75;5014006;28;19925;-66
2024/01/04 00:29:09;;;;;;;;;;;;;;;-0.56;88.13;93496.25;5013741;28;20178;-65
2024/01/04 00:31:34;;;;;;;;;;;;;;;-0.87;89.44;93510.72;5015603;28;20373;-64
2024/01/04 00:33:59;;;;;;;;;;;;;;;-1.35;92.32;93512.94;5015599;28;20085;-64
2024/01/04 00:36:24;;;;;;;;;;;;;;;-1.16;92.80;93522.31;5014913;28;19929;-64
2024/01/04 00:38:50;;;;;;;;;;;;;;;-0.96;91.25;93538.63;5013314;28;19936;-64
2024/01/04 00:41:16;;;;;;;;;;;;;;;-1.32;93.78;93533.53;5014764;28;20450;-63
2024/01/04 00:43:42;;;;;;;;;;;;;;;-1.23;92.78;93536.97;5014162;28;20552;-66
2024/01/04 00:46:08;;;;;;;;;;;;;;;-1.42;92.95;93544.09;5014802;28;20528;-63
2024/01/04 00:48:33;;;;;;;;;;;;;;;-1.78;95.74;93559.81;5015794;28;19937;-62
2024/01/04 00:51:01;;;;;;;;;;;;;;;-1.53;95.15;93554.78;5014745;28;19964;-64
2024/01/04 00:53:26;;;;;;;;;;;;;;;-1.23;90.26;93553.47;5012986;28;20217;-62
2024/01/04 00:55:51;;;;;;;;;;;;;;;-0.06;89.73;93603.53;5014417;28;20115;-64
2024/01/04 00:58:17;;;;;;;;;;;;;;;0.30;87.58;93571.81;5014471;28;19951;-62
2024/01/04 01:00:43;;;;;;;;;;;;;;;0.77;84.75;93563.41;5013544;28;20020;-62
2024/01/04 01:03:08;;;;;;;;;;;;;;;1.27;83.43;93565.88;5013391;28;19920;-62
2024/01/04 01:05:34;;;;;;;;;;;;;;;1.22;76.98;93579.47;5015992;28;19929;-64
2024/01/04 01:08:01;;;;;;;;;;;;;;;0.69;77.38;93572.91;5013665;28;20286;-62
2024/01/04 01:10:26;;;;;;;;;;;;;;;0.67;77.15;93588.00;5016237;28;20353;-63
2024/01/04 01:12:52;;;;;;;;;;;;;;;0.37;78.76;93594.75;5015014;28;20002;-65
2024/01/04 01:15:17;;;;;;;;;;;;;;;0.00;78.88;93608.13;5013773;28;20416;-64
2024/01/04 01:17:42;;;;;;;;;;;;;;;0.07;79.87;93596.03;5016649;28;19955;-66
2024/01/04 01:20:08;;;;;;;;;;;;;;;0.14;79.75;93593.56;5016336;28;19929;-65
2024/01/04 01:22:33;;;;;;;;;;;;;;;-0.43;81.71;93597.75;5014427;28;19925;-64
2024/01/04 01:24:58;;;;;;;;;;;;;;;-0.37;82.09;93606.75;5016204;28;19961;-63
2024/01/04 01:27:25;;;;;;;;;;;;;;;-0.43;82.95;93601.16;5015030;28;20393;-65
2024/01/04 01:29:50;;;;;;;;;;;;;;;-0.51;83.10;93603.75;5016381;28;19925;-64
2024/01/04 01:32:15;;;;;;;;;;;;;;;-0.75;84.50;93607.94;5015108;28;20448;-65
2024/01/04 01:34:43;;;;;;;;;;;;;;;-0.92;85.17;93614.06;5014821;28;20059;-62
2024/01/04 01:37:09;;;;;;;;;;;;;;;-1.23;88.02;93608.31;5011122;28;19999;-65
2024/01/04 01:39:35;;;;;;;;;;;;;;;-1.28;88.03;93605.38;5014199;28;19983;-65
2024/01/04 01:42:00;;;;;;;;;;;;;;;-1.34;88.92;93608.56;5015901;28;19966;-64
2024/01/04 01:44:25;;;;;;;;;;;;;;;-1.52;91.08;93608.63;5016008;28;19955;-63
2024/01/04 01:46:50;;;;;;;;;;;;;;;-1.54;91.63;93627.03;5014380;28;19975;-63
2024/01/04 01:49:16;;;;;;;;;;;;;;;-1.53;91.95;93607.78;5013966;28;20003;-64
2024/01/04 01:51:41;;;;;;;;;;;;;;;-1.78;94.28;93627.66;5014227;28;19932;-63
2024/01/04 01:54:06;;;;;;;;;;;;;;;-1.56;94.39;93646.44;5014480;28;19969;-63
2024/01/04 01:56:32;;;;;;;;;;;;;;;-1.47;93.44;93617.63;5014212;28;19978;-65
2024/01/04 01:58:57;;;;;;;;;;;;;;;-1.39;93.78;93626.50;5015418;28;19943;-64
2024/01/04 02:01:23;;;;;;;;;;;;;;;-1.62;95.21;93619.16;5008251;28;19957;-64
2024/01/04 02:03:48;;;;;;;;;;;;;;;-1.55;94.95;93642.84;5014165;28;19940;-63
2024/01/04 02:06:13;;;;;;;;;;;;;;;-1.93;95.45;93676.94;5014514;28;20201;-64
2024/01/04 02:08:38;;;;;;;;;;;;;;;-1.69;95.90;93654.66;5014165;28;19933;-64
2024/01/04 02:11:04;;;;;;;;;;;;;;;-1.84;97.63;93663.00;5013317;28;20547;-64
2024/01/04 02:13:29;;;;;;;;;;;;;;;-1.82;99.18;93668.06;5014940;28;19959;-62
2024/01/04 02:15:54;;;;;;;;;;;;;;;-1.69;97.01;93668.53;5012110;28;19933;-65
2024/01/04 02:18:19;;;;;;;;;;;;;;;-1.50;97.12;93664.91;5014235;28;19925;-65
2024/01/04 02:20:45;;;;;;;;;;;;;;;-1.48;96.56;93654.34;5014983;28;20016;-64
2024/01/04 02:23:19;;;;;;;;;;;;;;;-1.19;94.76;93661.06;5014126;28;20362;-65
2024/01/04 02:25:44;;;;;;;;;;;;;;;-1.10;95.54;93661.94;5013059;28;20491;-63
2024/01/04 02:28:09;;;;;;;;;;;;;;;-0.75;91.75;93660.19;5014085;28;20268;-64
2024/01/04 02:30:35;;;;;;;;;;;;;;;-0.22;89.30;93660.09;5012816;28;20078;-65
2024/01/04 02:33:00;;;;;;;;;;;;;;;-0.15;87.79;93668.09;5012427;28;20207;-64
2024/01/04 02:35:25;;;;;;;;;;;;;;;-0.12;86.73;93682.66;5014322;28;19971;-63
2024/01/04 02:37:51;;;;;;;;;;;;;;;-0.51;90.01;93671.72;5011372;28;20224;-65
2024/01/04 02:40:16;;;;;;;;;;;;;;;-0.55;91.04;93659.97;5014214;28;20448;-65
2024/01/04 02:42:41;;;;;;;;;;;;;;;-0.36;88.96;93660.69;5014010;28;19954;-64
2024/01/04 02:45:07;;;;;;;;;;;;;;;-0.50;89.61;93688.25;5014596;28;19963;-64
2024/01/04 02:47:32;;;;;;;;;;;;;;;-0.68;89.95;93681.28;5014976;28;19921;-65
2024/01/04 02:49:57;;;;;;;;;;;;;;;-0.51;89.53;93702.31;5021530;28;19995;-63
2024/01/04 02:52:22;;;;;;;;;;;;;;;-0.48;88.89;93687.13;5014704;28;20624;-63
2024/01/04 02:54:48;;;;;;;;;;;;;;;-0.20;88.27;93691.31;5015013;28;19925;-65
2024/01/04 02:57:13;;;;;;;;;;;;;;;0.62;88.32;93702.09;5017532;28;20039;-63
2024/01/04 02:59:39;;;;;;;;;;;;;;;1.17;85.45;93697.97;5013614;28;19932;-64
2024/01/04 03:02:04;;;;;;;;;;;;;;;0.04;85.88;93706.25;5013230;28;19924;-64
2024/01/04 03:04:29;;;;;;;;;;;;;;;-0.45;88.42;93723.41;5025812;28;20560;-65
2024/01/04 03:06:55;;;;;;;;;;;;;;;-0.64;89.50;93705.34;5015699;28;19986;-64
2024/01/04 03:09:20;;;;;;;;;;;;;;;-1.22;92.68;93721.44;5016457;28;19936;-64
2024/01/04 03:11:45;;;;;;;;;;;;;;;-1.63;96.13;93737.56;5017891;28;20519;-64
2024/01/04 03:14:10;;;;;;;;;;;;;;;-1.68;97.41;93730.19;5015988;28;19955;-62
2024/01/04 03:16:36;;;;;;;;;;;;;;;-1.89;99.38;93736.50;5016092;28;20499;-63
2024/01/04 03:19:01;;;;;;;;;;;;;;;-1.64;97.35;93751.56;5019730;28;19932;-64
2024/01/04 03:21:27;;;;;;;;;;;;;;;-1.85;98.58;93752.69;5018244;28;20033;-64
2024/01/04 03:23:52;;;;;;;;;;;;;;;-2.07;100.00;93741.66;5017752;28;19921;-63
2024/01/04 03:26:17;;;;;;;;;;;;;;;-2.01;100.00;93753.31;5020075;28;19961;-61
2024/01/04 03:28:42;;;;;;;;;;;;;;;-1.99;100.00;93749.59;5019423;28;20337;-63
2024/01/04 03:31:08;;;;;;;;;;;;;;;-1.81;100.00;93746.19;5018120;28;20222;-63
2024/01/04 03:33:33;;;;;;;;;;;;;;;-1.82;99.50;93769.81;5024178;28;20318;-64
2024/01/04 03:35:58;;;;;;;;;;;;;;;-2.06;100.00;93755.53;5015570;28;20010;-66
2024/01/04 03:38:23;;;;;;;;;;;;;;;-1.95;100.00;93742.31;5018896;28;19925;-65
2024/01/04 03:40:49;;;;;;;;;;;;;;;-1.85;100.00;93763.09;5017121;28;20444;-64
2024/01/04 03:43:14;;;;;;;;;;;;;;;-2.03;100.00;93770.91;5018211;28;19967;-65
2024/01/04 03:45:39;;;;;;;;;;;;;;;-2.12;100.00;93775.19;5017708;28;20317;-64
2024/01/04 03:48:06;;;;;;;;;;;;;;;-2.31;100.00;93769.09;5020286;28;20063;-63
2024/01/04 03:50:31;;;;;;;;;;;;;;;-2.06;100.00;93789.44;5017320;28;19936;-64
2024/01/04 03:52:56;;;;;;;;;;;;;;;-1.91;100.00;93781.94;5016955;28;19964;-65
2024/01/04 03:55:21;;;;;;;;;;;;;;;-2.23;100.00;93807.50;5018924;28;19965;-66
2024/01/04 03:57:47;;;;;;;;;;;;;;;-2.21;100.00;93791.72;5014966;28;20394;-63
2024/01/04 04:00:12;;;;;;;;;;;;;;;-2.40;100.00;93817.72;5015009;28;19925;-64
2024/01/04 04:02:37;;;;;;;;;;;;;;;-2.24;100.00;93822.31;5021419;28;20378;-65
2024/01/04 04:05:03;;;;;;;;;;;;;;;-2.20;100.00;93822.88;5016526;28;20003;-63
2024/01/04 04:07:28;;;;;;;;;;;;;;;-1.99;100.00;93806.16;5017554;28;19951;-65
2024/01/04 04:09:54;;;;;;;;;;;;;;;-1.90;100.00;93836.59;5016215;28;20014;-63
2024/01/04 04:12:20;;;;;;;;;;;;;;;-1.72;99.86;93822.78;5018970;28;20134;-63
2024/01/04 04:14:45;;;;;;;;;;;;;;;-1.70;99.28;93822.63;5016163;28;19924;-64
2024/01/04 04:17:10;;;;;;;;;;;;;;;-1.53;97.91;93834.88;5015043;28;20134;-65
2024/01/04 04:19:35;;;;;;;;;;;;;;;-1.82;98.80;93840.25;5018636;28;19960;-63
2024/01/04 04:22:01;;;;;;;;;;;;;;;-1.75;98.50;93844.78;5016535;28;19925;-64
2024/01/04 04:24:26;;;;;;;;;;;;;;;-1.74;97.92;93842.97;5019666;28;20398;-64
2024/01/04 04:26:51;;;;;;;;;;;;;;;-1.73;97.51;93834.19;5018880;28;19921;-65
2024/01/04 04:29:17;;;;;;;;;;;;;;;-1.67;97.56;93854.47;5018968;28;19928;-63
2024/01/04 04:31:42;;;;;;;;;;;;;;;-1.48;96.23;93861.38;5020760;28;19928;-64
2024/01/04 04:34:07;;;;;;;;;;;;;;;-1.82;96.85;93855.91;5016310;28;19940;-65
2024/01/04 04:36:32;;;;;;;;;;;;;;;-1.62;95.75;93851.44;5016619;28;20298;-66
2024/01/04 04:39:01;;;;;;;;;;;;;;;-1.74;96.33;93864.66;5015123;28;20417;-64
2024/01/04 04:41:27;;;;;;;;;;;;;;;-1.58;95.61;93889.31;5017318;28;19965;-64
2024/01/04 04:43:52;;;;;;;;;;;;;;;-1.32;93.42;93875.59;5015120;28;20397;-66
2024/01/04 04:46:18;;;;;;;;;;;;;;;-1.23;92.95;93882.53;5019422;28;19964;-65
2024/01/04 04:48:44;;;;;;;;;;;;;;;-1.38;92.93;93868.34;5015955;28;20135;-64
2024/01/04 04:51:09;;;;;;;;;;;;;;;-1.31;92.99;93879.00;5018281;28;19979;-65
2024/01/04 04:53:34;;;;;;;;;;;;;;;-1.49;94.18;93878.00;5013851;28;19933;-65
2024/01/04 04:55:59;;;;;;;;;;;;;;;-1.64;94.91;93889.88;5017721;28;20015;-64
2024/01/04 04:58:25;;;;;;;;;;;;;;;-1.48;94.86;93894.50;5017383;28;20215;-63
2024/01/04 05:00:50;;;;;;;;;;;;;;;-1.39;93.33;93882.34;5016535;28;20554;-64
2024/01/04 05:03:16;;;;;;;;;;;;;;;-1.55;95.08;93891.66;5015252;28;19962;-63
2024/01/04 05:05:41;;;;;;;;;;;;;;;-1.77;96.35;93911.09;5017869;28;20444;-64
2024/01/04 05:08:07;;;;;;;;;;;;;;;-1.76;96.44;93912.75;5015836;28;19932;-66
2024/01/04 05:10:32;;;;;;;;;;;;;;;-1.86;96.74;93902.34;5014645;28;20353;-63
2024/01/04 05:12:58;;;;;;;;;;;;;;;-1.83;96.76;93906.47;5015514;28;19958;-66
2024/01/04 05:15:23;;;;;;;;;;;;;;;-1.77;96.47;93909.31;5014221;28;20485;-65
2024/01/04 05:17:48;;;;;;;;;;;;;;;-1.38;93.45;93897.06;5014149;28;20009;-67
2024/01/04 05:20:15;;;;;;;;;;;;;;;-1.32;93.43;93919.97;5017287;28;20153;-64
2024/01/04 05:22:40;;;;;;;;;;;;;;;-1.75;94.85;93912.63;5013941;28;20693;-65
2024/01/04 05:25:06;;;;;;;;;;;;;;;-1.46;93.20;93916.03;5017693;28;20125;-63
2024/01/04 05:27:31;;;;;;;;;;;;;;;-1.41;92.13;93919.06;5014510;28;20205;-66
2024/01/04 05:29:56;;;;;;;;;;;;;;;-1.68;94.20;93928.50;5015117;28;20214;-65
2024/01/04 05:32:21;;;;;;;;;;;;;;;-1.60;94.68;93933.00;5019653;28;19953;-63
2024/01/04 05:34:47;;;;;;;;;;;;;;;-1.55;95.32;93946.47;5019785;28;19925;-63
2024/01/04 05:37:12;;;;;;;;;;;;;;;-0.78;92.61;93927.06;5014400;28;20342;-65
2024/01/04 05:39:37;;;;;;;;;;;;;;;-1.40;95.05;93927.69;5017489;28;20408;-67
2024/01/04 05:42:03;;;;;;;;;;;;;;;-1.36;94.62;93942.94;5014600;28;20066;-62
2024/01/04 05:44:28;;;;;;;;;;;;;;;-1.39;94.65;93931.97;5017343;28;20525;-64
2024/01/04 05:46:53;;;;;;;;;;;;;;;-1.38;95.62;93928.38;5016112;28;19931;-62
2024/01/04 05:49:18;;;;;;;;;;;;;;;-1.41;95.83;93937.34;5018532;28;20283;-64
2024/01/04 05:51:43;;;;;;;;;;;;;;;-1.41;95.61;93957.38;5015153;28;19917;-64
2024/01/04 05:54:09;;;;;;;;;;;;;;;-1.16;93.94;93952.47;5017569;28;20314;-63
2024/01/04 05:56:34;;;;;;;;;;;;;;;-1.44;96.15;93968.13;5018439;28;19925;-64
2024/01/04 05:58:59;;;;;;;;;;;;;;;-1.64;96.17;93974.25;5018532;28;20021;-63
2024/01/04 06:01:25;;;;;;;;;;;;;;;-1.45;95.03;93972.53;5014237;28;19951;-63
2024/01/04 06:03:50;;;;;;;;;;;;;;;-1.75;97.21;93982.25;5020741;28;20189;-62
2024/01/04 06:06:15;;;;;;;;;;;;;;;-1.95;98.38;93986.66;5014831;28;19921;-63
2024/01/04 06:08:41;;;;;;;;;;;;;;;-2.01;97.21;94001.09;5013152;28;19928;-62
2024/01/04 06:11:06;;;;;;;;;;;;;;;-1.98;96.89;93999.03;5015147;28;20252;-60
2024/01/04 06:13:31;;;;;;;;;;;;;;;-2.29;98.10;94006.22;5014731;28;19921;-63
2024/01/04 06:15:57;;;;;;;;;;;;;;;-2.43;99.12;94029.13;5013958;28;19925;-64
2024/01/04 06:18:22;;;;;;;;;;;;;;;-2.53;99.91;94004.84;5015630;28;20021;-63
2024/01/04 06:20:47;;;;;;;;;;;;;;;-2.70;100.00;94021.97;5014537;28;19956;-62
2024/01/04 06:23:12;;;;;;;;;;;;;;;-2.42;100.00;94043.81;5013426;28;19927;-62
2024/01/04 06:25:38;;;;;;;;;;;;;;;-2.18;99.55;94031.31;5013861;28;19952;-63
2024/01/04 06:28:03;;;;;;;;;;;;;;;-2.52;100.00;94032.53;5017700;28;20005;-63
2024/01/04 06:30:28;;;;;;;;;;;;;;;-2.77;100.00;94032.94;5015114;28;20290;-62
2024/01/04 06:32:54;;;;;;;;;;;;;;;-2.72;100.00;94057.75;5011492;28;20126;-64
2024/01/04 06:35:19;;;;;;;;;;;;;;;-2.55;100.00;94059.69;5012245;28;20352;-62
2024/01/04 06:37:44;;;;;;;;;;;;;;;-2.70;100.00;94046.25;5010702;28;19957;-63
2024/01/04 06:40:10;;;;;;;;;;;;;;;-2.66;100.00;94060.66;5015074;28;19928;-64
2024/01/04 06:42:36;;;;;;;;;;;;;;;-2.78;100.00;94041.69;5018306;28;20414;-62
2024/01/04 06:45:05;;;;;;;;;;;;;;;-2.73;100.00;94054.31;5013657;28;19931;-64
2024/01/04 06:47:30;;;;;;;;;;;;;;;-2.71;100.00;94057.63;5018477;28;20334;-64
2024/01/04 06:49:56;;;;;;;;;;;;;;;-2.95;100.00;94077.00;5018670;28;19932;-64
2024/01/04 06:52:21;;;;;;;;;;;;;;;-2.79;100.00;94078.28;5016404;28;20463;-63
2024/01/04 06:54:46;;;;;;;;;;;;;;;-2.50;100.00;94082.75;5016629;28;19936;-62
2024/01/04 06:57:12;;;;;;;;;;;;;;;-2.07;97.41;94078.13;5017260;28;19929;-62
2024/01/04 06:59:37;;;;;;;;;;;;;;;-2.02;96.55;94098.56;5019067;28;19952;-60
2024/01/04 07:02:05;;;;;;;;;;;;;;;-0.98;91.02;94102.22;5016913;28;20249;-63
2024/01/04 07:04:31;;;;;;;;;;;;;;;-1.01;89.76;94076.41;5017167;28;19929;-64
2024/01/04 07:06:56;;;;;;;;;;;;;;;-0.82;87.57;94090.38;5015592;28;19925;-63
2024/01/04 07:09:21;;;;;;;;;;;;;;;-1.08;89.01;94083.97;5018207;28;20442;-61
2024/01/04 07:11:47;;;;;;;;;;;;;;;-1.39;90.58;94072.97;5018464;28;19929;-64
2024/01/04 07:14:12;;;;;;;;;;;;;;;-1.81;92.19;94082.78;5016351;28;20078;-63
2024/01/04 07:16:44;;;;;;;;;;;;;;;-2.16;95.16;94084.16;5014412;28;20333;-64
2024/01/04 07:19:09;;;;;;;;;;;;;;;-2.12;96.18;94083.75;5017836;28;20287;-64
2024/01/04 07:21:35;;;;;;;;;;;;;;;-2.07;96.15;94090.34;5015768;28;19970;-62
2024/01/04 07:24:00;;;;;;;;;;;;;;;-2.05;96.53;94091.84;5017251;28;19992;-63
2024/01/04 07:26:26;;;;;;;;;;;;;;;-2.27;97.55;94091.16;5017146;28;19929;-63
2024/01/04 07:28:51;;;;;;;;;;;;;;;-2.17;98.06;94098.16;5014268;28;20290;-62
2024/01/04 07:31:16;;;;;;;;;;;;;;;-1.92;96.05;94090.75;5013149;28;19937;-64
2024/01/04 07:33:41;;;;;;;;;;;;;;;-1.91;96.75;94095.84;5014088;28;20158;-63
2024/01/04 07:36:07;;;;;;;;;;;;;;;-2.26;98.06;94097.19;5016902;28;20184;-64
2024/01/04 07:38:34;;;;;;;;;;;;;;;-2.23;97.55;94123.00;5017597;28;19921;-64
2024/01/04 07:40:59;;;;;;;;;;;;;;;-2.29;98.97;94110.50;5017091;28;19925;-63
2024/01/04 07:43:24;;;;;;;;;;;;;;;-2.39;100.00;94113.94;5014370;28;20409;-62
2024/01/04 07:45:50;;;;;;;;;;;;;;;-2.09;99.05;94100.91;5017379;28;20002;-63
2024/01/04 07:48:15;;;;;;;;;;;;;;;-2.22;99.16;94105.56;5017141;28;19929;-62
2024/01/04 07:50:40;;;;;;;;;;;;;;;-1.96;97.49;94105.03;5016644;28;19978;-64
2024/01/04 07:53:05;;;;;;;;;;;;;;;-1.83;96.71;94121.25;5015849;28;19956;-62
2024/01/04 07:55:31;;;;;;;;;;;;;;;-1.89;96.32;94116.56;5015838;28;20421;-63
2024/01/04 07:57:56;;;;;;;;;;;;;;;-1.82;96.75;94124.66;5014975;28;19956;-62
2024/01/04 08:00:22;;;;;;;;;;;;;;;-2.13;98.49;94126.44;5016362;28;20043;-64
2024/01/04 08:02:47;;;;;;;;;;;;;;;-2.31;99.25;94134.09;5015897;28;20130;-62
2024/01/04 08:05:13;;;;;;;;;;;;;;;-2.15;99.05;94132.75;5014635;28;19983;-63
2024/01/04 08:07:38;;;;;;;;;;;;;;;-1.93;97.91;94141.28;5014662;28;19959;-63
2024/01/04 08:10:04;;;;;;;;;;;;;;;-1.94;97.60;94132.63;5016958;28;19925;-63
2024/01/04 08:12:29;;;;;;;;;;;;;;;-1.81;96.76;94137.56;5017007;28;19940;-63
2024/01/04 08:14:54;;;;;;;;;;;;;;;-1.83;96.85;94138.69;5016410;28;19968;-63
2024/01/04 08:17:20;;;;;;;;;;;;;;;-1.74;96.92;94141.28;5013233;28;20282;-63
2024/01/04 08:19:46;;;;;;;;;;;;;;;-1.77;95.95;94140.72;5015817;28;19925;-61
2024/01/04 08:22:11;;;;;;;;;;;;;;;-1.73;95.91;94137.72;5008551;28;19999;-63
2024/01/04 08:24:37;;;;;;;;;;;;;;;-1.77;95.86;94156.38;5016111;28;19995;-63
2024/01/04 08:27:02;;;;;;;;;;;;;;;-1.72;96.01;94165.44;4991912;28;19929;-63
2024/01/04 08:29:27;;;;;;;;;;;;;;;-1.95;97.62;94164.06;5001935;28;19933;-62
2024/01/04 08:31:53;;;;;;;;;;;;;;;-1.25;94.44;94158.66;5011005;28;20454;-63
2024/01/04 08:34:18;;;;;;;;;;;;;;;-0.96;91.77;94157.81;5012773;28;20200;-63
2024/01/04 08:36:43;;;;;;;;;;;;;;;-1.30;92.59;94163.50;5015005;28;20016;-62
2024/01/04 08:39:10;;;;;;;;;;;;;;;-1.46;92.98;94158.84;5014183;28;20352;-63
2024/01/04 08:41:35;;;;;;;;;;;;;;;-1.83;95.62;94165.59;5013848;28;19925;-63
2024/01/04 08:44:01;;;;;;;;;;;;;;;-1.68;95.11;94166.00;5012313;28;20202;-63
2024/01/04 08:46:26;;;;;;;;;;;;;;;-1.75;95.49;94176.19;5014597;28;20373;-62
2024/01/04 08:48:51;;;;;;;;;;;;;;;-1.39;94.95;94180.00;5016278;28;20096;-63
2024/01/04 08:51:16;;;;;;;;;;;;;;;-1.52;95.04;94177.69;5018802;28;20007;-63
2024/01/04 08:53:43;;;;;;;;;;;;;;;-1.97;96.30;94182.47;5019473;28;20481;-63
2024/01/04 08:56:08;;;;;;;;;;;;;;;-1.68;96.85;94175.63;5017384;28;19929;-63
2024/01/04 08:58:34;;;;;;;;;;;;;;;-1.52;95.19;94178.50;5025322;28;19925;-64
2024/01/04 09:00:59;;;;;;;;;;;;;;;-1.53;94.82;94191.72;5020219;28;20027;-64
2024/01/04 09:03:25;;;;;;;;;;;;;;;-1.74;96.03;94190.88;5017352;28;19998;-64
2024/01/04 09:05:50;;;;;;;;;;;;;;;-1.58;96.03;94181.66;5014847;28;20441;-63
2024/01/04 09:08:15;;;;;;;;;;;;;;;-1.60;95.30;94183.59;5015967;28;19921;-63
2024/01/04 09:10:40;;;;;;;;;;;;;;;-1.19;93.64;94185.22;5014283;28;20232;-64
2024/01/04 09:13:06;;;;;;;;;;;;;;;-1.59;95.04;94186.06;5017201;28;19959;-64
2024/01/04 09:15:31;;;;;;;;;;;;;;;-1.38;94.00;94187.72;5015615;28;20211;-63
2024/01/04 09:17:56;;;;;;;;;;;;;;;-1.46;95.38;94196.22;5015206;28;19925;-64
2024/01/04 09:20:22;;;;;;;;;;;;;;;-1.62;95.32;94186.31;5013670;28;19936;-64
2024/01/04 09:22:48;;;;;;;;;;;;;;;-1.44;95.02;94187.41;5015541;28;19976;-64
2024/01/04 09:25:13;;;;;;;;;;;;;;;-1.42;95.55;94198.56;5015526;28;20087;-64
2024/01/04 09:27:38;;;;;;;;;;;;;;;-1.31;94.67;94206.25;5016732;28;19921;-76
2024/01/04 09:30:04;;;;;;;;;;;;;;;-1.11;93.59;94211.47;5016701;28;19994;-75
2024/01/04 09:32:29;;;;;;;;;;;;;;;-1.23;93.33;94205.53;5013757;28;19925;-65
2024/01/04 09:34:55;;;;;;;;;;;;;;;-1.48;95.52;94213.84;5013529;28;19925;-64
2024/01/04 09:37:20;;;;;;;;;;;;;;;-1.19;94.48;94216.56;5015565;28;20417;-64
2024/01/04 09:39:45;;;;;;;;;;;;;;;-1.74;96.89;94219.56;5015561;28;19924;-64
2024/01/04 09:42:10;;;;;;;;;;;;;;;-1.59;96.89;94225.22;5011383;28;19979;-64
2024/01/04 09:44:36;;;;;;;;;;;;;;;-1.64;97.76;94223.97;5013602;28;19990;-64
2024/01/04 09:47:07;;;;;;;;;;;;;;;-1.54;96.20;94235.25;4996808;28;19925;-64
2024/01/04 09:49:32;;;;;;;;;;;;;;;-1.46;95.31;94243.22;4998211;28;19931;-65
2024/01/04 09:51:58;;;;;;;;;;;;;;;-1.51;96.51;94244.59;5003014;28;20312;-64
2024/01/04 09:54:23;;;;;;;;;;;;;;;-1.37;95.53;94238.13;4996887;28;19990;-64
2024/01/04 09:56:50;;;;;;;;;;;;;;;-1.59;95.67;94246.09;4993810;28;20234;-64
2024/01/04 09:59:15;;;;;;;;;;;;;;;-1.61;96.43;94258.47;5007909;28;20454;-64
2024/01/04 10:01:41;;;;;;;;;;;;;;;-1.34;95.70;94253.53;4969764;28;20073;-64
2024/01/04 10:04:07;;;;;;;;;;;;;;;-1.15;93.98;94272.78;5013535;28;19947;-64
2024/01/04 10:06:33;;;;;;;;;;;;;;;-1.43;95.51;94273.44;4999830;28;20268;-64
2024/01/04 10:09:20;;;;;;;;;;;;;;;-1.35;95.15;94275.38;4996450;28;19925;-64
2024/01/04 10:11:57;;;;;;;;;;;;;;;-0.98;92.59;94272.06;5014038;28;19940;-65
2024/01/04 10:14:23;;;;;;;;;;;;;;;-1.09;93.38;94269.59;5009919;28;19948;-65
2024/01/04 10:16:48;;;;;;;;;;;;;;;-1.45;95.09;94291.06;5013207;28;20424;-64
2024/01/04 10:19:14;;;;;;;;;;;;;;;-1.48;96.03;94296.53;5014518;28;20382;-65
2024/01/04 10:21:39;;;;;;;;;;;;;;;-1.65;96.75;94283.19;5007845;28;19926;-64
2024/01/04 10:24:05;;;;;;;;;;;;;;;-1.87;97.07;94303.31;5000231;28;19925;-64
2024/01/04 10:26:30;;;;;;;;;;;;;;;-1.53;96.24;94291.72;5011374;28;20241;-65
2024/01/04 10:28:56;;;;;;;;;;;;;;;-1.61;96.35;94299.41;5014283;28;20022;-64
2024/01/04 10:31:22;;;;;;;;;;;;;;;-1.60;96.53;94288.00;5012066;28;19960;-64
2024/01/04 10:33:47;;;;;;;;;;;;;;;-1.77;96.68;94284.25;5012936;28;20482;-64
2024/01/04 10:36:13;;;;;;;;;;;;;;;-1.86;97.69;94314.59;5012681;28;19925;-64
2024/01/04 10:38:38;;;;;;;;;;;;;;;-1.67;97.06;94303.38;5018037;28;20662;-64
2024/01/04 10:41:04;;;;;;;;;;;;;;;-1.41;95.07;94309.88;5014529;28;19935;-64
2024/01/04 10:43:30;;;;;;;;;;;;;;;-1.62;95.31;94331.69;5013232;28;19921;-64
2024/01/04 10:46:08;;;;;;;;;;;;;;;-1.86;97.12;94327.66;5013353;28;19931;-64
2024/01/04 10:48:34;;;;;;;;;;;;;;;-1.37;94.31;94309.47;5015302;28;19925;-64
2024/01/04 10:51:03;;;;;;;;;;;;;;;-1.01;92.36;94305.50;5017714;28;19929;-64
2024/01/04 10:53:30;;;;;;;;;;;;;;;-1.33;92.41;94323.06;5015833;28;20473;-64
2024/01/04 10:55:55;;;;;;;;;;;;;;;-1.70;95.35;94315.88;5018121;28;20013;-64
2024/01/04 10:58:20;;;;;;;;;;;;;;;-1.68;96.47;94312.16;4993383;28;20438;-64
2024/01/04 11:00:46;;;;;;;;;;;;;;;-1.67;96.96;94349.53;5015215;28;19952;-64
2024/01/04 11:03:11;;;;;;;;;;;;;;;-1.66;97.05;94327.69;5014642;28;19913;-64
2024/01/04 11:05:37;;;;;;;;;;;;;;;-1.77;96.59;94333.81;5016446;28;20002;-64
2024/01/04 11:08:02;;;;;;;;;;;;;;;-1.46;95.11;94324.16;5016681;28;19990;-64
2024/01/04 11:10:27;;;;;;;;;;;;;;;-1.66;96.09;94336.34;5021338;28;19933;-64
2024/01/04 11:12:53;;;;;;;;;;;;;;;-1.52;95.88;94327.28;5013941;28;19963;-64
2024/01/04 11:15:18;;;;;;;;;;;;;;;-0.68;92.34;94320.91;5011205;28;20199;-64
2024/01/04 11:18:19;;;;;;;;;;;;;;;-0.45;89.22;94324.84;5015519;28;19929;-64
2024/01/04 11:20:55;;;;;;;;;;;;;;;-0.47;89.91;94329.38;5008995;28;20632;-64
2024/01/04 11:23:26;;;;;;;;;;;;;;;-1.08;92.30;94326.94;5024091;28;19995;-64
2024/01/04 11:26:15;;;;;;;;;;;;;;;-1.05;93.03;94338.91;5013641;28;19932;-64
2024/01/04 11:28:40;;;;;;;;;;;;;;;-1.44;95.32;94331.03;5014819;28;19921;-64
2024/01/04 11:31:05;;;;;;;;;;;;;;;-1.22;94.97;94329.97;5016066;28;20395;-64
2024/01/04 11:33:32;;;;;;;;;;;;;;;-1.04;93.85;94330.13;5019332;28;19929;-64
2024/01/04 11:35:57;;;;;;;;;;;;;;;-0.93;93.36;94323.94;5017678;28;20418;-64
2024/01/04 11:38:23;;;;;;;;;;;;;;;-0.42;91.02;94331.59;5017159;28;20192;-65
2024/01/04 11:40:49;;;;;;;;;;;;;;;-0.95;92.09;94328.47;5020209;28;19925;-65
2024/01/04 11:43:16;;;;;;;;;;;;;;;-1.23;92.30;94318.69;5015845;28;19954;-65
2024/01/04 11:45:42;;;;;;;;;;;;;;;-0.92;91.17;94332.63;5015996;28;19924;-65
2024/01/04 11:48:08;;;;;;;;;;;;;;;-1.02;91.39;94322.94;5018384;28;20154;-65
2024/01/04 11:50:35;;;;;;;;;;;;;;;-0.96;88.87;94337.28;5019970;28;20274;-65
2024/01/04 11:53:06;;;;;;;;;;;;;;;-1.04;90.51;94319.66;5017132;28;20489;-65
2024/01/04 11:55:33;;;;;;;;;;;;;;;-0.62;88.85;94317.72;5016309;28;20422;-65
2024/01/04 11:58:21;;;;;;;;;;;;;;;-1.24;89.73;94314.44;5018977;28;19929;-65
2024/01/04 12:00:51;;;;;;;;;;;;;;;-0.71;88.02;94307.13;5022111;28;19924;-65
2024/01/04 12:03:17;;;;;;;;;;;;;;;-0.57;86.79;94350.31;5017415;28;20524;-65
2024/01/04 12:05:43;;;;;;;;;;;;;;;-0.14;85.16;94315.13;5017948;28;20150;-65
2024/01/04 12:08:08;;;;;;;;;;;;;;;-0.62;86.02;94349.94;5020567;28;20002;-65
2024/01/04 12:10:33;;;;;;;;;;;;;;;-0.78;86.34;94329.56;5019894;28;20231;-65
2024/01/04 12:12:59;;;;;;;;;;;;;;;-1.42;90.82;94329.94;5016577;28;19925;-65
2024/01/04 12:15:24;;;;;;;;;;;;;;;-1.12;88.33;94343.84;5016146;28;19964;-65
2024/01/04 12:17:49;;;;;;;;;;;;;;;-1.11;90.68;94329.00;5017720;28;19955;-65
2024/01/04 12:20:15;;;;;;;;;;;;;;;-1.12;91.32;94329.97;5025310;28;20083;-65
2024/01/04 12:22:40;;;;;;;;;;;;;;;-1.27;92.27;94346.03;5014163;28;20349;-65
2024/01/04 12:25:06;;;;;;;;;;;;;;;-1.61;94.02;94336.78;5016600;28;19952;-64
2024/01/04 12:27:32;;;;;;;;;;;;;;;-1.61;94.34;94328.13;5018301;28;20416;-64
2024/01/04 12:29:57;;;;;;;;;;;;;;;-1.73;95.28;94336.03;5015104;28;19937;-64
2024/01/04 12:32:23;;;;;;;;;;;;;;;-1.64;94.50;94344.03;5019446;28;19921;-65
2024/01/04 12:34:49;;;;;;;;;;;;;;;-1.87;95.14;94329.41;5019133;28;20517;-65
2024/01/04 12:37:15;;;;;;;;;;;;;;;-1.47;94.71;94346.00;5017308;28;20154;-64